Irene, TX (76650)

8:32 PM CST on December 28, 2014 (GMT -0600)
Schulz Farms | Change Station
CLOSE
Current Station
Personal Weather Station
Location: Malone, TX
Elevation: 535 ft
Nearby Weather Stations

Elev 535 ft 31.96 °N, 96.90 °W | Updated 7 minutes ago

Clear
Clear
34.0 °F
Feels Like 31 °F
N
3.8
Wind Variable Wind from South

Today
High -- | Low -- °F
--% Chance of Precip.
Yesterday
High -- | Low -- °F
Precip. -- in
7:26 AM 5:31 PM
First Quarter, 54% visible
Pressure 30.15 in
Visibility 10.0 miles
Clouds Clear
Windchill 31 °F
Dew Point 27 °F
Humidity 74%
Rainfall 0.00 in
Snow Depth Not available.
UV 0 out of 12
Pollen 9.00 out of 12
Air Quality Not available.
Flu Activity Not available.
METAR KINJ 290215Z AUTO 13005KT 10SM CLR 01/M03 A3015 RMK AO2 T00131030

More Conditions Fewer Conditions

Pressure 30.15 in
Visibility 10.0 miles
Clouds Clear
Windchill 31 °F
Dew Point 27 °F
Humidity 74%
Rainfall 0.00 in
Snow Depth Not available.
UV 0 out of 12
Pollen 9.00 out of 12
Air Quality Not available.
Flu Activity Not available.
METAR KINJ 290215Z AUTO 13005KT 10SM CLR 01/M03 A3015 RMK AO2 T00131030

More Conditions Fewer Conditions

10-Day Weather Forecast

Almanac

Astronomy

Dec. 28, 2014 Rise Set
Actual Time
Civil Twilight
Nautical Twilight
Astronomical Twilight
Moon
Length of Visible Light
Length of Day
Tomorrow will be .
, % of the Moon is Illuminated

Today's Extremes

State Highs State Lows

Community

WunderPhotos

Upload Photos

1,781,503 photos uploaded!

WunderBlogs® & News

Nearby

Air Quality

  Air Quality AQ Index Pollutant
Not available.

Snow Depth

Station Depth Elevation

Earthquake Activity

City Distance Mag. Time & Date
Minimum magnitude displayed is 2.5.

Coastal Water Temperatures

Place Temperature

Nearby Weather Stations